createdAt,value
2018-02-02T00:00:21.604Z,83.68
2018-02-02T00:01:02.121Z,84.06
2018-02-02T00:01:42.652Z,83.72
2018-02-02T00:02:23.168Z,83.82
2018-02-02T00:03:03.785Z,83.06
2018-02-02T00:03:44.321Z,83.53
2018-02-02T00:04:24.891Z,83.25
2018-02-02T00:05:05.367Z,82.87
2018-02-02T00:05:45.929Z,82.87
2018-02-02T00:06:26.451Z,83.06
2018-02-02T00:07:06.995Z,83.06
2018-02-02T00:07:47.507Z,82.96
2018-02-02T00:08:28.108Z,82.87
2018-02-02T00:09:08.585Z,82.87
2018-02-02T00:09:49.126Z,82.1
2018-02-02T00:10:29.857Z,82.68
2018-02-02T00:11:10.394Z,82.58
2018-02-02T00:11:50.933Z,82.1
2018-02-02T00:12:31.509Z,82.58
2018-02-02T00:13:12.077Z,82.49
2018-02-02T00:13:52.604Z,82.2
2018-02-02T00:14:33.133Z,82.29
2018-02-02T00:15:13.690Z,82.29
2018-02-02T00:15:54.248Z,81.25
2018-02-02T00:16:34.784Z,81.82
2018-02-02T00:17:15.330Z,82.01
2018-02-02T00:17:55.870Z,82.01
2018-02-02T00:18:36.451Z,82.29
2018-02-02T00:19:16.939Z,82.49
2018-02-02T00:19:57.444Z,82.29
2018-02-02T00:20:38.006Z,82.39
2018-02-02T00:21:18.577Z,83.15
2018-02-02T00:21:59.142Z,83.82
2018-02-02T00:22:39.651Z,82.77
2018-02-02T00:23:20.189Z,82.68
2018-02-02T00:24:00.753Z,82.39
2018-02-02T00:24:41.241Z,82.39
2018-02-02T00:25:21.933Z,82.39
2018-02-02T00:26:02.443Z,82.87
2018-02-02T00:26:42.970Z,82.39
2018-02-02T00:27:23.449Z,82.01
2018-02-02T00:28:04.038Z,81.25
2018-02-02T00:28:44.560Z,81.35
2018-02-02T00:29:25.198Z,81.82
2018-02-02T00:30:05.745Z,81.82
2018-02-02T00:30:46.386Z,81.35
2018-02-02T00:31:26.893Z,81.35
2018-02-02T00:32:07.532Z,81.44
2018-02-02T00:32:47.981Z,81.35
2018-02-02T00:33:28.864Z,81.73
2018-02-02T00:34:09.916Z,82.39
2018-02-02T00:34:50.377Z,82.39
2018-02-02T00:35:31.529Z,82.2
2018-02-02T00:36:12.800Z,82.1
2018-02-02T00:36:53.135Z,81.73
2018-02-02T00:37:33.911Z,81.63
2018-02-02T00:38:14.134Z,81.73
2018-02-02T00:38:54.684Z,81.73
2018-02-02T00:39:35.298Z,81.54
2018-02-02T00:40:15.855Z,81.92
2018-02-02T00:40:56.387Z,81.73
2018-02-02T00:41:36.943Z,81.73
2018-02-02T00:42:17.464Z,81.73
2018-02-02T00:42:58.022Z,81.82
2018-02-02T00:43:38.527Z,81.25
2018-02-02T00:44:19.094Z,81.82
2018-02-02T00:44:59.560Z,81.73
2018-02-02T00:45:40.119Z,82.77
2018-02-02T00:46:20.652Z,82.58
2018-02-02T00:47:01.222Z,82.01
2018-02-02T00:47:41.712Z,82.58
2018-02-02T00:48:22.303Z,82.68
2018-02-02T00:49:02.863Z,82.2
2018-02-02T00:49:43.401Z,81.73
2018-02-02T00:50:23.907Z,81.73
2018-02-02T00:51:04.419Z,81.35
2018-02-02T00:51:44.999Z,81.25
2018-02-02T00:52:25.513Z,80.77
2018-02-02T00:53:06.041Z,81.06
2018-02-02T00:53:46.549Z,80.96
2018-02-02T00:54:27.123Z,81.25
2018-02-02T00:55:07.566Z,81.54
2018-02-02T00:55:48.130Z,81.35
2018-02-02T00:56:28.679Z,81.35
2018-02-02T00:57:09.196Z,81.44
2018-02-02T00:57:49.718Z,81.16
2018-02-02T00:58:30.309Z,81.54
2018-02-02T00:59:10.841Z,81.73
2018-02-02T00:59:51.371Z,81.35
2018-02-02T01:00:31.968Z,81.35
2018-02-02T01:01:12.394Z,81.77
2018-02-02T01:01:52.953Z,81.35
2018-02-02T01:02:33.488Z,81.29
2018-02-02T01:03:14.051Z,80.72
2018-02-02T01:03:54.524Z,80.82
2018-02-02T01:04:35.039Z,80.91
2018-02-02T01:05:15.575Z,80.15
2018-02-02T01:05:56.110Z,80.91
2018-02-02T01:06:36.658Z,81.2
2018-02-02T01:07:17.135Z,80.63
2018-02-02T01:07:57.657Z,80.44
2018-02-02T01:08:38.202Z,79.86
2018-02-02T01:09:18.750Z,79.25
2018-02-02T01:09:59.280Z,79.92
2018-02-02T01:10:39.796Z,80.49
2018-02-02T01:11:20.367Z,80.96
2018-02-02T01:12:00.899Z,80.96
2018-02-02T01:12:41.384Z,80.53
2018-02-02T01:13:21.958Z,80.15
2018-02-02T01:14:02.519Z,80.11
2018-02-02T01:14:43.059Z,80.44
2018-02-02T01:15:23.549Z,81.01
2018-02-02T01:16:04.068Z,80.63
2018-02-02T01:16:44.631Z,80.91
2018-02-02T01:17:25.175Z,80.82
2018-02-02T01:18:05.714Z,80.82
2018-02-02T01:18:46.294Z,80.44
2018-02-02T01:19:26.815Z,80.05
2018-02-02T01:20:07.358Z,80.24
2018-02-02T01:20:47.880Z,80.34
2018-02-02T01:21:28.498Z,80.05
2018-02-02T01:22:08.961Z,79.83
2018-02-02T01:22:49.572Z,80.49
2018-02-02T01:23:30.076Z,80.21
2018-02-02T01:24:10.584Z,81.06
2018-02-02T01:24:51.098Z,80.96
2018-02-02T01:25:31.622Z,80.77
2018-02-02T01:26:12.175Z,80.68
2018-02-02T01:26:52.707Z,81.16
2018-02-02T01:27:33.177Z,81.25
2018-02-02T01:28:13.748Z,81.54
2018-02-02T01:28:54.301Z,81.92
2018-02-02T01:29:34.844Z,81.25
2018-02-02T01:30:15.385Z,80.58
2018-02-02T01:30:55.932Z,81.25
2018-02-02T01:31:36.502Z,81.16
2018-02-02T01:32:17.005Z,81.16
2018-02-02T01:32:57.574Z,81.16
2018-02-02T01:33:38.094Z,80.77
2018-02-02T01:34:18.618Z,80.87
2018-02-02T01:34:59.150Z,80.96
2018-02-02T01:35:39.668Z,81.92
2018-02-02T01:36:20.170Z,81.06
2018-02-02T01:37:00.712Z,80.49
2018-02-02T01:37:41.276Z,80.49
2018-02-02T01:38:21.774Z,80.87
2018-02-02T01:39:02.361Z,80.77
2018-02-02T01:39:42.885Z,80.77
2018-02-02T01:40:23.431Z,80.96
2018-02-02T01:41:03.946Z,80.96
2018-02-02T01:41:44.517Z,80.96
2018-02-02T01:42:25.079Z,80.58
2018-02-02T01:43:05.667Z,80.77
2018-02-02T01:43:46.162Z,80.49
2018-02-02T01:44:26.699Z,80.11
2018-02-02T01:45:07.213Z,79.92
2018-02-02T01:45:47.757Z,80.4
2018-02-02T01:46:28.400Z,81.16
2018-02-02T01:47:08.910Z,81.06
2018-02-02T01:47:49.489Z,81.06
2018-02-02T01:48:30.005Z,80.68
2018-02-02T01:49:10.533Z,80.02
2018-02-02T01:49:51.023Z,80.02
2018-02-02T01:50:31.576Z,80.21
2018-02-02T01:51:12.130Z,80.21
2018-02-02T01:51:52.666Z,80.4
2018-02-02T01:52:33.202Z,79.73
2018-02-02T01:53:13.745Z,80.11
2018-02-02T01:53:54.295Z,79.63
2018-02-02T01:54:34.786Z,79.83
2018-02-02T01:55:15.295Z,79.73
2018-02-02T01:55:55.847Z,79.16
2018-02-02T01:56:36.376Z,80.21
2018-02-02T01:57:16.937Z,80.11
2018-02-02T01:57:57.402Z,80.3
2018-02-02T01:58:37.881Z,80.77
2018-02-02T01:59:18.427Z,80.96
2018-02-02T01:59:58.966Z,81.06
2018-02-02T02:00:39.467Z,80.77
2018-02-02T02:01:19.999Z,80.3
2018-02-02T02:02:00.615Z,80.77
2018-02-02T02:02:41.117Z,80.11
2018-02-02T02:03:21.673Z,80.4
2018-02-02T02:04:02.180Z,80.11
2018-02-02T02:04:42.731Z,80.3
2018-02-02T02:05:23.265Z,79.63
2018-02-02T02:06:05.414Z,79.92
2018-02-02T02:06:45.950Z,79.92
2018-02-02T02:07:26.477Z,80.11
2018-02-02T02:08:07.042Z,80.21
2018-02-02T02:08:47.671Z,79.92
2018-02-02T02:09:28.146Z,80.49
2018-02-02T02:10:08.742Z,80.11
2018-02-02T02:10:49.244Z,80.21
2018-02-02T02:11:29.837Z,80.11
2018-02-02T02:12:10.329Z,80.58
2018-02-02T02:12:50.917Z,80.11
2018-02-02T02:13:31.408Z,80.58
2018-02-02T02:14:11.926Z,80.3
2018-02-02T02:14:52.523Z,80.4
2018-02-02T02:15:33.041Z,79.83
2018-02-02T02:16:13.646Z,79.92
2018-02-02T02:16:54.225Z,80.21
2018-02-02T02:17:34.704Z,80.58
2018-02-02T02:18:15.264Z,80.49
2018-02-02T02:18:55.853Z,80.77
2018-02-02T02:19:36.470Z,80.96
2018-02-02T02:20:16.995Z,80.96
2018-02-02T02:20:57.532Z,80.58
2018-02-02T02:21:38.045Z,80.96
2018-02-02T02:22:18.539Z,80.87
2018-02-02T02:22:59.145Z,81.06
2018-02-02T02:23:39.634Z,81.35
2018-02-02T02:24:20.194Z,81.06
2018-02-02T02:25:00.764Z,80.87
2018-02-02T02:25:41.283Z,81.25
2018-02-02T02:26:21.846Z,81.25
2018-02-02T02:27:02.412Z,81.54
2018-02-02T02:27:42.916Z,81.06
2018-02-02T02:28:23.518Z,81.25
2018-02-02T02:29:04.007Z,81.16
2018-02-02T02:29:44.556Z,81.06
2018-02-02T02:30:25.083Z,80.96
2018-02-02T02:31:05.590Z,81.73
2018-02-02T02:31:46.155Z,81.63
2018-02-02T02:32:26.700Z,81.16
2018-02-02T02:33:07.330Z,81.3
2018-02-02T02:33:47.927Z,81.78
2018-02-02T02:34:28.409Z,81.73
2018-02-02T02:35:08.966Z,81.44
2018-02-02T02:35:49.548Z,81.63
2018-02-02T02:36:30.089Z,82.68
2018-02-02T02:37:10.558Z,82.68
2018-02-02T02:37:51.140Z,81.63
2018-02-02T02:38:31.708Z,82.2
2018-02-02T02:39:12.264Z,81.82
2018-02-02T02:39:52.813Z,81.73
2018-02-02T02:40:33.333Z,81.82
2018-02-02T02:41:13.880Z,82.58
2018-02-02T02:41:54.397Z,81.92
2018-02-02T02:42:34.932Z,81.73
2018-02-02T02:43:15.454Z,81.44
2018-02-02T02:43:56.014Z,81.35
2018-02-02T02:44:36.541Z,81.54
2018-02-02T02:45:17.096Z,81.54
2018-02-02T02:45:57.653Z,81.44
2018-02-02T02:46:38.194Z,82.39
2018-02-02T02:47:18.748Z,82.87
2018-02-02T02:47:59.355Z,82.87
2018-02-02T02:48:39.846Z,83.3
2018-02-02T02:49:20.417Z,83.87
2018-02-02T02:50:00.910Z,83.39
2018-02-02T02:50:41.495Z,84.06
2018-02-02T02:51:22.071Z,84.25
2018-02-02T02:52:02.662Z,84.44
2018-02-02T02:52:43.236Z,84.25
2018-02-02T02:53:23.740Z,84.25
2018-02-02T02:54:04.261Z,84.44
2018-02-02T02:54:44.808Z,84.44
2018-02-02T02:55:25.358Z,84.63
2018-02-02T02:56:05.901Z,85.49
2018-02-02T02:56:46.444Z,84.63
2018-02-02T02:57:26.987Z,85.01
2018-02-02T02:58:07.493Z,84.82
2018-02-02T02:58:48.082Z,85.01
2018-02-02T02:59:28.664Z,85.39
2018-02-02T03:00:09.169Z,86.05
2018-02-02T03:00:49.753Z,85.96
2018-02-02T03:01:30.317Z,85.68
2018-02-02T03:02:10.849Z,85.68
2018-02-02T03:02:51.377Z,86.24
2018-02-02T03:03:31.898Z,86.53
2018-02-02T03:04:12.438Z,86.24
2018-02-02T03:04:53.044Z,86.15
2018-02-02T03:05:33.672Z,85.68
2018-02-02T03:06:14.113Z,85.49
2018-02-02T03:06:54.661Z,85.01
2018-02-02T03:07:35.199Z,85.01
2018-02-02T03:08:15.763Z,84.72
2018-02-02T03:08:56.299Z,84.72
2018-02-02T03:09:36.800Z,85.2
2018-02-02T03:10:17.363Z,85.01
2018-02-02T03:10:57.898Z,85.77
2018-02-02T03:11:38.416Z,85.3
2018-02-02T03:12:18.940Z,85.68
2018-02-02T03:12:59.488Z,85.11
2018-02-02T03:13:40.002Z,84.67
2018-02-02T03:14:20.580Z,84.82
2018-02-02T03:15:01.107Z,84.72
2018-02-02T03:15:41.642Z,84.91
2018-02-02T03:16:22.179Z,84.44
2018-02-02T03:17:02.680Z,84.53
2018-02-02T03:17:43.218Z,84.34
2018-02-02T03:18:23.789Z,84.25
2018-02-02T03:19:04.307Z,84.63
2018-02-02T03:19:44.834Z,85.11
2018-02-02T03:20:25.384Z,85.3
2018-02-02T03:21:06.020Z,85.2
2018-02-02T03:21:46.527Z,85.11
2018-02-02T03:22:27.057Z,85.11
2018-02-02T03:23:07.582Z,85.49
2018-02-02T03:23:48.167Z,84.63
2018-02-02T03:24:28.763Z,85.39
2018-02-02T03:25:09.288Z,84.53
2018-02-02T03:25:49.812Z,85.01
2018-02-02T03:26:30.386Z,85.35
2018-02-02T03:27:10.954Z,85.16
2018-02-02T03:27:51.430Z,85.77
2018-02-02T03:28:31.981Z,86.3
2018-02-02T03:29:12.533Z,86.63
2018-02-02T03:29:53.020Z,85.96
2018-02-02T03:30:33.600Z,85.58
2018-02-02T03:31:14.231Z,85.49
2018-02-02T03:31:54.769Z,86.24
2018-02-02T03:32:35.316Z,86.15
2018-02-02T03:33:15.781Z,86.24
2018-02-02T03:33:56.335Z,85.53
2018-02-02T03:34:36.854Z,86.34
2018-02-02T03:35:17.432Z,86.11
2018-02-02T03:35:58.014Z,85.63
2018-02-02T03:36:38.558Z,86.3
2018-02-02T03:37:19.081Z,86.3
2018-02-02T03:37:59.691Z,86.3
2018-02-02T03:38:40.207Z,86.2
2018-02-02T03:39:20.722Z,86.43
2018-02-02T03:40:01.296Z,85.63
2018-02-02T03:40:41.849Z,85.53
2018-02-02T03:41:22.425Z,86.34
2018-02-02T03:42:02.913Z,85.77
2018-02-02T03:42:43.441Z,85.77
2018-02-02T03:43:23.974Z,85.96
2018-02-02T03:44:04.549Z,86.05
2018-02-02T03:44:45.065Z,85.86
2018-02-02T03:45:25.621Z,85.91
2018-02-02T03:46:06.179Z,85.63
2018-02-02T03:46:46.717Z,86.2
2018-02-02T03:47:27.251Z,85.63
2018-02-02T03:48:07.799Z,86.11
2018-02-02T03:48:48.292Z,86.39
2018-02-02T03:49:28.862Z,86.01
2018-02-02T03:50:09.426Z,85.72
2018-02-02T03:50:49.947Z,86.2
2018-02-02T03:51:30.505Z,86.3
2018-02-02T03:52:11.011Z,86.2
2018-02-02T03:52:51.577Z,86.2
2018-02-02T03:53:32.115Z,86.2
2018-02-02T03:54:12.627Z,86.01
2018-02-02T03:54:53.207Z,86.3
2018-02-02T03:55:33.770Z,86.01
2018-02-02T03:56:14.357Z,86.77
2018-02-02T03:56:54.872Z,86.58
2018-02-02T03:57:35.490Z,86.49
2018-02-02T03:58:17.736Z,87.05
2018-02-02T03:58:58.213Z,86.58
2018-02-02T03:59:38.751Z,86.87
2018-02-02T04:00:19.320Z,87.15
2018-02-02T04:00:59.893Z,87.24
2018-02-02T04:01:40.460Z,86.96
2018-02-02T04:02:21.007Z,87.34
2018-02-02T04:03:01.529Z,87.24
2018-02-02T04:03:42.027Z,87.15
2018-02-02T04:04:22.643Z,87.24
2018-02-02T04:05:03.197Z,87.34
2018-02-02T04:05:43.724Z,87.24
2018-02-02T04:06:24.222Z,87.05
2018-02-02T04:07:04.785Z,86.68
2018-02-02T04:07:45.303Z,87.05
2018-02-02T04:08:25.917Z,86.87
2018-02-02T04:09:06.385Z,86.68
2018-02-02T04:09:46.916Z,86.05
2018-02-02T04:10:27.479Z,86.3
2018-02-02T04:11:08.020Z,86.11
2018-02-02T04:11:48.530Z,86.3
2018-02-02T04:12:29.076Z,86.2
2018-02-02T04:13:09.615Z,86.2
2018-02-02T04:13:50.134Z,86.3
2018-02-02T04:14:30.633Z,86.3
2018-02-02T04:15:11.184Z,86.11
2018-02-02T04:15:51.706Z,86.49
2018-02-02T04:16:32.246Z,86.2
2018-02-02T04:17:12.797Z,86.11
2018-02-02T04:17:53.351Z,86.58
2018-02-02T04:18:33.899Z,86.77
2018-02-02T04:19:14.440Z,86.77
2018-02-02T04:19:54.941Z,86.87
2018-02-02T04:20:35.467Z,86.87
2018-02-02T04:21:16.012Z,86.15
2018-02-02T04:21:56.596Z,86.2
2018-02-02T04:22:37.086Z,86.15
2018-02-02T04:23:17.647Z,85.68
2018-02-02T04:23:58.270Z,85.96
2018-02-02T04:24:38.822Z,85.77
2018-02-02T04:25:19.322Z,85.58
2018-02-02T04:25:59.846Z,85.91
2018-02-02T04:26:40.387Z,85.68
2018-02-02T04:27:20.932Z,85.68
2018-02-02T04:28:01.466Z,85.68
2018-02-02T04:28:42.032Z,85.68
2018-02-02T04:29:22.557Z,84.91
2018-02-02T04:30:03.054Z,84.87
2018-02-02T04:30:43.624Z,85.44
2018-02-02T04:31:24.154Z,85.39
2018-02-02T04:32:04.687Z,85.39
2018-02-02T04:32:45.261Z,85.77
2018-02-02T04:33:25.811Z,85.39
2018-02-02T04:34:06.335Z,85.01
2018-02-02T04:34:46.899Z,85.11
2018-02-02T04:35:27.393Z,84.72
2018-02-02T04:36:07.925Z,85.11
2018-02-02T04:36:48.443Z,85.11
2018-02-02T04:37:29.026Z,85.3
2018-02-02T04:38:09.569Z,84.53
2018-02-02T04:38:50.099Z,84.63
2018-02-02T04:39:30.627Z,85.49
2018-02-02T04:40:11.680Z,84.63
2018-02-02T04:40:52.201Z,84.34
2018-02-02T04:41:32.771Z,84.63
2018-02-02T04:42:13.280Z,84.72
2018-02-02T04:42:53.775Z,84.72
2018-02-02T04:43:34.363Z,85.3
2018-02-02T04:44:14.879Z,84.91
2018-02-02T04:44:55.580Z,85.49
2018-02-02T04:45:36.142Z,85.3
2018-02-02T04:46:16.670Z,85.96
2018-02-02T04:46:57.261Z,85.82
2018-02-02T04:47:37.770Z,85.91
2018-02-02T04:48:18.342Z,86.3
2018-02-02T04:48:59.011Z,86.01
2018-02-02T04:49:39.564Z,86.24
2018-02-02T04:50:20.244Z,86.01
2018-02-02T04:51:00.777Z,86.01
2018-02-02T04:51:41.288Z,85.53
2018-02-02T04:52:21.896Z,86.11
2018-02-02T04:53:02.398Z,86.87
2018-02-02T04:53:43.004Z,86.58
2018-02-02T04:54:23.548Z,85.82
2018-02-02T04:55:04.353Z,85.91
2018-02-02T04:55:44.808Z,85.91
2018-02-02T04:56:25.327Z,86.3
2018-02-02T04:57:05.888Z,86.49
2018-02-02T04:57:46.412Z,86.2
2018-02-02T04:58:26.967Z,85.72
2018-02-02T04:59:07.600Z,85.91
2018-02-02T04:59:48.105Z,86.39
2018-02-02T05:00:28.620Z,86.3
2018-02-02T05:01:09.159Z,86.3
2018-02-02T05:01:49.725Z,85.63
2018-02-02T05:02:30.258Z,86.68
2018-02-02T05:03:10.793Z,86.77
2018-02-02T05:03:51.339Z,86.58
2018-02-02T05:04:31.889Z,86.96
2018-02-02T05:05:12.384Z,87.24
2018-02-02T05:05:52.905Z,87.43
2018-02-02T05:06:33.416Z,87.05
2018-02-02T05:07:13.991Z,86.87
2018-02-02T05:07:54.531Z,86.96
2018-02-02T05:08:35.117Z,86.58
2018-02-02T05:09:15.563Z,86.68
2018-02-02T05:09:56.138Z,86.39
2018-02-02T05:10:36.761Z,86.24
2018-02-02T05:11:17.289Z,85.91
2018-02-02T05:11:57.794Z,86.15
2018-02-02T05:12:38.343Z,85.68
2018-02-02T05:13:18.923Z,85.58
2018-02-02T05:13:59.406Z,85.3
2018-02-02T05:14:39.968Z,85.39
2018-02-02T05:15:20.502Z,85.3
2018-02-02T05:16:01.047Z,85.86
2018-02-02T05:16:41.544Z,85.53
2018-02-02T05:17:22.039Z,85.53
2018-02-02T05:18:02.611Z,86.01
2018-02-02T05:18:43.113Z,86.2
2018-02-02T05:19:23.675Z,86.01
2018-02-02T05:20:04.269Z,86.05
2018-02-02T05:20:44.796Z,86.2
2018-02-02T05:21:25.320Z,86.2
2018-02-02T05:22:05.976Z,85.63
2018-02-02T05:22:46.574Z,86.11
2018-02-02T05:23:27.157Z,86.39
2018-02-02T05:24:07.592Z,86.2
2018-02-02T05:24:48.192Z,86.39
2018-02-02T05:25:28.628Z,87.24
2018-02-02T05:26:09.297Z,87.34
2018-02-02T05:26:49.747Z,86.96
2018-02-02T05:27:30.256Z,87.24
2018-02-02T05:28:10.825Z,86.39
2018-02-02T05:28:51.335Z,86.87
2018-02-02T05:29:31.926Z,86.2
2018-02-02T05:30:12.507Z,86.11
2018-02-02T05:30:52.953Z,86.87
2018-02-02T05:31:33.588Z,86.58
2018-02-02T05:32:14.104Z,86.77
2018-02-02T05:32:54.706Z,85.91
2018-02-02T05:33:35.182Z,86.77
2018-02-02T05:34:15.690Z,87.15
2018-02-02T05:34:56.283Z,86.87
2018-02-02T05:35:36.820Z,86.68
2018-02-02T05:36:17.334Z,87.05
2018-02-02T05:36:57.924Z,87.24
2018-02-02T05:37:38.510Z,86.11
2018-02-02T05:38:18.972Z,86.11
2018-02-02T05:38:59.509Z,86.68
2018-02-02T05:39:40.232Z,86.2
2018-02-02T05:40:20.696Z,86.68
2018-02-02T05:41:01.294Z,86.01
2018-02-02T05:41:41.802Z,85.91
2018-02-02T05:42:22.313Z,86.01
2018-02-02T05:43:02.858Z,85.91
2018-02-02T05:43:43.469Z,86.11
2018-02-02T05:44:23.968Z,85.53
2018-02-02T05:45:04.500Z,85.82
2018-02-02T05:45:44.975Z,85.25
2018-02-02T05:46:25.541Z,85.49
2018-02-02T05:47:06.000Z,85.25
2018-02-02T05:47:46.576Z,85.06
2018-02-02T05:48:27.118Z,84.87
2018-02-02T05:49:07.616Z,85.2
2018-02-02T05:49:48.133Z,85.16
2018-02-02T05:50:28.670Z,85.44
2018-02-02T05:51:09.268Z,85.72
2018-02-02T05:51:49.815Z,86.11
2018-02-02T05:52:30.424Z,85.82
2018-02-02T05:53:10.923Z,85.72
2018-02-02T05:53:51.472Z,85.63
2018-02-02T05:54:31.998Z,85.44
2018-02-02T05:55:12.514Z,85.53
2018-02-02T05:55:53.050Z,86.2
2018-02-02T05:56:33.654Z,86.01
2018-02-02T05:57:14.138Z,86.39
2018-02-02T05:57:54.641Z,86.49
2018-02-02T05:58:35.261Z,85.91
2018-02-02T05:59:15.875Z,85.63
2018-02-02T05:59:56.415Z,85.44
2018-02-02T06:00:36.956Z,85.63
2018-02-02T06:01:17.615Z,85.91
2018-02-02T06:01:58.088Z,85.44
2018-02-02T06:02:38.610Z,85.35
2018-02-02T06:03:19.153Z,85.44
2018-02-02T06:03:59.665Z,85.53
2018-02-02T06:04:40.196Z,85.35
2018-02-02T06:05:20.815Z,85.44
2018-02-02T06:06:01.740Z,85.35
2018-02-02T06:06:42.193Z,85.35
2018-02-02T06:07:25.782Z,85.63
2018-02-02T06:08:06.193Z,85.35
2018-02-02T06:08:46.843Z,86.01
2018-02-02T06:09:27.800Z,85.53
2018-02-02T06:10:08.385Z,85.72
2018-02-02T06:10:48.896Z,85.63
2018-02-02T06:11:29.477Z,85.63
2018-02-02T06:12:09.984Z,86.01
2018-02-02T06:12:50.610Z,85.82
2018-02-02T06:13:31.405Z,85.91
2018-02-02T06:14:11.979Z,85.91
2018-02-02T06:14:52.533Z,86.01
2018-02-02T06:15:33.126Z,86.01
2018-02-02T06:16:13.725Z,86.2
2018-02-02T06:16:54.163Z,86.58
2018-02-02T06:17:34.753Z,86.87
2018-02-02T06:18:15.306Z,86.11
2018-02-02T06:18:55.843Z,86.01
2018-02-02T06:19:36.445Z,86.3
2018-02-02T06:20:17.003Z,86.2
2018-02-02T06:20:57.616Z,85.63
2018-02-02T06:21:38.041Z,86.58
2018-02-02T06:22:18.663Z,86.96
2018-02-02T06:22:59.147Z,87.43
2018-02-02T06:23:39.703Z,87.24
2018-02-02T06:24:20.338Z,87.34
2018-02-02T06:25:00.948Z,87.05
2018-02-02T06:25:41.619Z,86.11
2018-02-02T06:26:22.510Z,85.91
2018-02-02T06:27:03.185Z,85.82
2018-02-02T06:27:43.714Z,85.25
2018-02-02T06:28:24.307Z,85.25
2018-02-02T06:29:04.796Z,85.63
2018-02-02T06:29:45.435Z,86.87
2018-02-02T06:30:25.932Z,87.34
2018-02-02T06:31:08.993Z,87.48
2018-02-02T06:31:49.500Z,87.34
2018-02-02T06:32:30.091Z,87.29
2018-02-02T06:33:10.573Z,87.29
2018-02-02T06:33:51.107Z,87.1
2018-02-02T06:34:31.621Z,87.19
2018-02-02T06:35:12.179Z,86.2
2018-02-02T06:35:52.729Z,86.82
2018-02-02T06:36:33.254Z,86.72
2018-02-02T06:37:13.793Z,86.49
2018-02-02T06:37:54.484Z,86.82
2018-02-02T06:38:34.871Z,86.11
2018-02-02T06:39:15.423Z,85.96
2018-02-02T06:39:55.993Z,85.49
2018-02-02T06:40:36.487Z,84.63
2018-02-02T06:41:17.019Z,84.3
2018-02-02T06:41:57.617Z,83.87
2018-02-02T06:42:38.109Z,84.59
2018-02-02T06:43:18.626Z,85.01
2018-02-02T06:43:59.141Z,85.11
2018-02-02T06:44:39.665Z,84.72
2018-02-02T06:45:20.247Z,85.68
2018-02-02T06:46:00.837Z,85.3
2018-02-02T06:46:41.343Z,84.82
2018-02-02T06:47:21.853Z,83.97
2018-02-02T06:48:02.439Z,85.3
2018-02-02T06:48:43.020Z,84.91
2018-02-02T06:49:23.550Z,84.06
2018-02-02T06:50:04.052Z,84.53
2018-02-02T06:50:44.635Z,85.49
2018-02-02T06:51:25.253Z,85.58
2018-02-02T06:52:05.880Z,86.01
2018-02-02T06:52:46.332Z,85.39
2018-02-02T06:53:26.884Z,85.68
2018-02-02T06:54:07.330Z,85.82
2018-02-02T06:54:47.892Z,86.49
2018-02-02T06:55:28.436Z,86.77
2018-02-02T06:56:08.940Z,87.19
2018-02-02T06:56:49.494Z,87.57
2018-02-02T06:57:30.129Z,88.62
2018-02-02T06:58:10.900Z,89.76
2018-02-02T06:58:51.437Z,89.57
2018-02-02T06:59:31.987Z,88.43
2018-02-02T07:00:12.503Z,90.14
2018-02-02T07:00:53.009Z,92.23
2018-02-02T07:01:33.534Z,93.84
2018-02-02T07:02:14.106Z,90.42
2018-02-02T07:02:54.707Z,92.61
2018-02-02T07:03:35.262Z,91.38
2018-02-02T07:04:15.769Z,87.48
2018-02-02T07:04:56.288Z,86.24
2018-02-02T07:05:36.844Z,92.61
2018-02-02T07:06:17.422Z,99.99
2018-02-02T07:06:58.007Z,99.99
2018-02-02T07:07:38.935Z,99.99
2018-02-02T07:08:19.524Z,99.99
2018-02-02T07:09:00.040Z,99.99
2018-02-02T07:09:40.584Z,99.99
2018-02-02T07:10:21.177Z,99.99
2018-02-02T07:11:01.745Z,99.99
2018-02-02T07:11:42.257Z,99.99
2018-02-02T07:12:22.806Z,99.99
2018-02-02T07:13:03.322Z,95.17
2018-02-02T07:13:43.906Z,90.71
2018-02-02T07:14:24.492Z,86.43
2018-02-02T07:15:05.105Z,85.11
2018-02-02T07:15:45.686Z,85.96
2018-02-02T07:16:26.193Z,87.01
2018-02-02T07:17:06.668Z,98.31
2018-02-02T07:17:47.258Z,99.99
2018-02-02T07:18:27.861Z,99.99
2018-02-02T07:19:08.449Z,99.99
2018-02-02T07:19:49.090Z,99.99
2018-02-02T07:20:29.577Z,99.99
2018-02-02T07:21:10.122Z,99.99
2018-02-02T07:21:50.657Z,99.99
2018-02-02T07:22:31.203Z,99.99
2018-02-02T07:23:12.062Z,99.99
2018-02-02T07:23:52.451Z,99.99
2018-02-02T07:24:32.994Z,99.99
2018-02-02T07:25:13.639Z,99.99
2018-02-02T07:25:54.201Z,99.99
2018-02-02T07:26:34.770Z,98.45
2018-02-02T07:27:15.245Z,92.66
2018-02-02T07:27:55.787Z,91.33
2018-02-02T07:28:36.345Z,90.37
2018-02-02T07:29:16.861Z,89.14
2018-02-02T07:29:57.376Z,88.67
2018-02-02T07:30:37.952Z,87.43
2018-02-02T07:31:18.460Z,87.71
2018-02-02T07:31:59.004Z,88.57
2018-02-02T07:32:39.526Z,87.71
2018-02-02T07:33:20.070Z,86.76
2018-02-02T07:34:00.609Z,99.99
2018-02-02T07:34:41.087Z,99.99
2018-02-02T07:35:21.618Z,93.7
2018-02-02T07:36:02.224Z,98.93
2018-02-02T07:36:42.797Z,97.03
2018-02-02T07:37:23.366Z,92.27
2018-02-02T07:38:03.919Z,93.32
2018-02-02T07:38:44.472Z,88.85
2018-02-02T07:39:25.001Z,86.19
2018-02-02T07:40:05.660Z,84.95
2018-02-02T07:40:46.171Z,84.48
2018-02-02T07:41:26.800Z,84.58
2018-02-02T07:42:07.320Z,84.86
2018-02-02T07:42:47.890Z,84.48
2018-02-02T07:43:28.427Z,83.62
2018-02-02T07:44:09.016Z,82.49
2018-02-02T07:44:49.584Z,82.39
2018-02-02T07:45:30.118Z,81.92
2018-02-02T07:46:10.662Z,82.1
2018-02-02T07:46:51.223Z,82.1
2018-02-02T07:47:31.793Z,81.82
2018-02-02T07:48:12.368Z,82.39
2018-02-02T07:48:52.932Z,82.77
2018-02-02T07:49:33.464Z,82.49
2018-02-02T07:50:13.994Z,82.39
2018-02-02T07:50:54.552Z,82.2
2018-02-02T07:51:35.099Z,81.25
2018-02-02T07:52:15.752Z,82.1
2018-02-02T07:52:56.157Z,82.1
2018-02-02T07:53:36.712Z,82.49
2018-02-02T07:54:17.271Z,81.68
2018-02-02T07:54:57.851Z,81.25
2018-02-02T07:55:38.294Z,82.58
2018-02-02T07:56:18.843Z,84.48
2018-02-02T07:56:59.385Z,84.58
2018-02-02T07:57:39.916Z,85.62
2018-02-02T07:58:20.464Z,85.24
2018-02-02T07:59:01.031Z,82.87
2018-02-02T07:59:41.558Z,81.97
2018-02-02T08:00:22.063Z,81.21
2018-02-02T08:01:02.596Z,83.49
2018-02-02T08:01:43.138Z,90.37
2018-02-02T08:02:23.733Z,99.99
2018-02-02T08:03:04.271Z,99.99
2018-02-02T08:03:44.784Z,99.99
2018-02-02T08:04:25.330Z,99.99
2018-02-02T08:05:05.808Z,99.99
2018-02-02T08:05:46.382Z,99.99
2018-02-02T08:06:26.890Z,99.99
2018-02-02T08:07:07.375Z,99.99
2018-02-02T08:07:47.979Z,99.99
2018-02-02T08:08:28.706Z,99.99
2018-02-02T08:09:09.274Z,99.99
2018-02-02T08:09:49.827Z,99.99
2018-02-02T08:10:30.459Z,99.99
2018-02-02T08:11:10.999Z,99.99
2018-02-02T08:11:51.581Z,92.56
2018-02-02T08:12:32.131Z,88.95
2018-02-02T08:13:12.628Z,87.43
2018-02-02T08:13:53.169Z,89.18
2018-02-02T08:14:33.745Z,90.99
2018-02-02T08:15:14.302Z,99.99
2018-02-02T08:15:54.816Z,99.99
2018-02-02T08:16:35.410Z,99.99
2018-02-02T08:17:15.987Z,99.99
2018-02-02T08:17:56.475Z,99.99
2018-02-02T08:18:36.982Z,99.99
2018-02-02T08:19:17.549Z,99.99
2018-02-02T08:19:58.057Z,99.99
2018-02-02T08:20:38.606Z,99.99
2018-02-02T08:21:19.087Z,99.99
2018-02-02T08:21:59.655Z,99.99
2018-02-02T08:22:40.245Z,99.99
2018-02-02T08:23:20.725Z,99.99
2018-02-02T08:24:01.316Z,99.45
2018-02-02T08:24:41.943Z,90.89
2018-02-02T08:25:22.510Z,86.52
2018-02-02T08:26:03.017Z,85.95
2018-02-02T08:26:43.607Z,85.15
2018-02-02T08:27:24.244Z,85.53
2018-02-02T08:28:04.878Z,84.95
2018-02-02T08:28:45.397Z,85.15
2018-02-02T08:29:25.915Z,86.29
2018-02-02T08:30:06.469Z,84.48
2018-02-02T08:30:46.972Z,83.62
2018-02-02T08:31:27.577Z,84.39
2018-02-02T08:32:08.181Z,84.86
2018-02-02T08:32:48.734Z,85.38
2018-02-02T08:33:29.286Z,85
2018-02-02T08:34:09.838Z,84.62
2018-02-02T08:34:50.407Z,85
2018-02-02T08:35:30.923Z,84.24
2018-02-02T08:36:11.505Z,85.28
2018-02-02T08:36:51.990Z,84.52
2018-02-02T08:37:32.562Z,84.52
2018-02-02T08:38:13.123Z,82.62
2018-02-02T08:38:53.642Z,82.15
2018-02-02T08:39:34.178Z,83.19
2018-02-02T08:40:14.679Z,83.19
2018-02-02T08:40:55.282Z,83.76
2018-02-02T08:41:35.839Z,99.64
2018-02-02T08:42:16.371Z,99.99
2018-02-02T08:42:56.871Z,99.99
2018-02-02T08:43:37.381Z,99.99
2018-02-02T08:44:17.924Z,96.94